Time;durP1;ratioP1;P1;durP2;ratioP2;P2;SDS_P1;SDS_P2;PMS_P1;PMS_P2;Temp;Humidity;BMP_temperature;BMP_pressure;BME280_temperature;BME280_humidity;BME280_pressure;Samples;Min_cycle;Max_cycle;Signal;HPM_P1;HPM_P2
2023/03/29 00:01:59;;;;;;;;;;;;;;;;;;5134514;28;19926;-68
2023/03/29 00:04:28;;;;;;;;;;;;;;;;;;5134475;28;19991;-68
2023/03/29 00:06:54;;;;;;;;;;;;;;;;;;5134750;28;19947;-69
2023/03/29 00:09:20;;;;;;;;;;;;;;;;;;5135058;28;19907;-68
2023/03/29 00:11:46;;;;;;;;;;;;;;;;;;5134409;28;20002;-69
2023/03/29 00:14:12;;;;;;;;;;;;;;;;;;5134647;28;19911;-68
2023/03/29 00:16:38;;;;;;;;;;;;;;;;;;5134883;28;19942;-68
2023/03/29 00:19:04;;;;;;;;;;;;;;;;;;5134324;28;19911;-69
2023/03/29 00:21:30;;;;;;;;;;;;;;;;;;5116428;27;19918;-69
2023/03/29 00:23:56;;;;;;;;;;;;;;;;;;5137154;27;20267;-69
2023/03/29 00:26:22;;;;;;;;;;;;;;;;;;5138792;27;20282;-68
2023/03/29 00:28:48;;;;;;;;;;;;;;;;;;5138734;27;20423;-69
2023/03/29 00:31:14;;;;;;;;;;;;;;;;;;5138321;27;19994;-69
2023/03/29 00:33:41;;;;;;;;;;;;;;;;;;5138718;27;19907;-70
2023/03/29 00:36:07;;;;;;;;;;;;;;;;;;5138670;27;20248;-70
2023/03/29 00:38:33;;;;;;;;;;;;;;;;;;5119945;27;19912;-69
2023/03/29 00:40:59;;;;;;;;;;;;;;;;;;5138376;27;19907;-68
2023/03/29 00:43:25;;;;;;;;;;;;;;;;;;5138678;27;19907;-68
2023/03/29 00:45:51;;;;;;;;;;;;;;;;;;5138220;27;19942;-68
2023/03/29 00:48:17;;;;;;;;;;;;;;;;;;5138393;27;19914;-68
2023/03/29 00:50:43;;;;;;;;;;;;;;;;;;5138390;27;19911;-68
2023/03/29 00:53:11;;;;;;;;;;;;;;;;;;5119379;27;20378;-68
2023/03/29 00:55:37;;;;;;;;;;;;;;;;;;5138179;27;20283;-68
2023/03/29 00:58:03;;;;;;;;;;;;;;;;;;5138101;27;19919;-68
2023/03/29 01:00:30;;;;;;;;;;;;;;;;;;5137276;27;20369;-67
2023/03/29 01:02:58;;;;;;;;;;;;;;;;;;5138257;27;20011;-68
2023/03/29 01:05:24;;;;;;;;;;;;;;;;;;5138018;27;19908;-68
2023/03/29 01:07:52;;;;;;;;;;;;;;;;;;5137588;27;19908;-68
2023/03/29 01:10:18;;;;;;;;;;;;;;;;;;5119765;27;19908;-68
2023/03/29 01:12:44;;;;;;;;;;;;;;;;;;5137965;27;20389;-68
2023/03/29 01:15:10;;;;;;;;;;;;;;;;;;5137494;27;19915;-68
2023/03/29 01:17:36;;;;;;;;;;;;;;;;;;5137817;27;19914;-68
2023/03/29 01:20:06;;;;;;;;;;;;;;;;;;5119358;27;19907;-68
2023/03/29 01:22:37;;;;;;;;;;;;;;;;;;5137218;27;20024;-68
2023/03/29 01:25:04;;;;;;;;;;;;;;;;;;5137599;27;20010;-68
2023/03/29 01:27:30;;;;;;;;;;;;;;;;;;5137194;27;19914;-68
2023/03/29 01:29:56;;;;;;;;;;;;;;;;;;5137469;27;20395;-68
2023/03/29 01:32:23;;;;;;;;;;;;;;;;;;5137459;27;20094;-68
2023/03/29 01:34:50;;;;;;;;;;;;;;;;;;5136463;27;19943;-68
2023/03/29 01:37:16;;;;;;;;;;;;;;;;;;5137365;27;19914;-68
2023/03/29 01:39:42;;;;;;;;;;;;;;;;;;5137580;27;19908;-68
2023/03/29 01:42:08;;;;;;;;;;;;;;;;;;5137170;27;19921;-68
2023/03/29 01:44:34;;;;;;;;;;;;;;;;;;5137198;27;19911;-68
2023/03/29 01:47:00;;;;;;;;;;;;;;;;;;5137245;27;20019;-68
2023/03/29 01:49:26;;;;;;;;;;;;;;;;;;5136697;27;19912;-68
2023/03/29 01:51:52;;;;;;;;;;;;;;;;;;5137122;27;19912;-68
2023/03/29 01:54:18;;;;;;;;;;;;;;;;;;5137094;27;19915;-68
2023/03/29 01:56:44;;;;;;;;;;;;;;;;;;5136591;27;19915;-68
2023/03/29 01:59:10;;;;;;;;;;;;;;;;;;5136993;27;19976;-68
2023/03/29 02:01:37;;;;;;;;;;;;;;;;;;5118236;27;20013;-68
2023/03/29 02:04:03;;;;;;;;;;;;;;;;;;5136554;27;20002;-68
2023/03/29 02:06:29;;;;;;;;;;;;;;;;;;5136932;27;20003;-68
2023/03/29 02:08:55;;;;;;;;;;;;;;;;;;5136832;27;19907;-68
2023/03/29 02:11:22;;;;;;;;;;;;;;;;;;5136355;27;19907;-68
2023/03/29 02:13:48;;;;;;;;;;;;;;;;;;5136948;27;19908;-68
2023/03/29 02:16:13;;;;;;;;;;;;;;;;;;5136678;27;20002;-68
2023/03/29 02:18:40;;;;;;;;;;;;;;;;;;5136277;27;19915;-68
2023/03/29 02:21:05;;;;;;;;;;;;;;;;;;5136464;27;19916;-68
2023/03/29 02:23:33;;;;;;;;;;;;;;;;;;5136109;27;19911;-68
2023/03/29 02:25:58;;;;;;;;;;;;;;;;;;5136435;27;19946;-68
2023/03/29 02:28:24;;;;;;;;;;;;;;;;;;5117965;27;19907;-68
2023/03/29 02:30:52;;;;;;;;;;;;;;;;;;5136020;27;19947;-68
2023/03/29 02:33:18;;;;;;;;;;;;;;;;;;5136565;27;19915;-68
2023/03/29 02:35:44;;;;;;;;;;;;;;;;;;5136336;27;19907;-68
2023/03/29 02:38:10;;;;;;;;;;;;;;;;;;5136047;27;19908;-68
2023/03/29 02:40:36;;;;;;;;;;;;;;;;;;5136132;27;19980;-68
2023/03/29 02:43:02;;;;;;;;;;;;;;;;;;5136377;27;19916;-69
2023/03/29 02:45:28;;;;;;;;;;;;;;;;;;5134855;27;20256;-69
2023/03/29 02:47:54;;;;;;;;;;;;;;;;;;5135997;27;19960;-69
2023/03/29 02:50:20;;;;;;;;;;;;;;;;;;5117521;27;19914;-68
2023/03/29 02:52:46;;;;;;;;;;;;;;;;;;5135696;27;19908;-68
2023/03/29 02:55:13;;;;;;;;;;;;;;;;;;5117476;27;19908;-69
2023/03/29 02:57:39;;;;;;;;;;;;;;;;;;5135866;27;19912;-68
2023/03/29 03:00:09;;;;;;;;;;;;;;;;;;5116917;27;20351;-68
2023/03/29 03:02:35;;;;;;;;;;;;;;;;;;5135568;27;19964;-68
2023/03/29 03:05:00;;;;;;;;;;;;;;;;;;5135626;27;19907;-69
2023/03/29 03:07:27;;;;;;;;;;;;;;;;;;5135205;27;19914;-68
2023/03/29 03:09:53;;;;;;;;;;;;;;;;;;5135598;27;19919;-68
2023/03/29 03:12:19;;;;;;;;;;;;;;;;;;5135541;27;20275;-70
2023/03/29 03:14:45;;;;;;;;;;;;;;;;;;5135083;27;19946;-69
2023/03/29 03:17:11;;;;;;;;;;;;;;;;;;5117045;27;19966;-69
2023/03/29 03:19:37;;;;;;;;;;;;;;;;;;5135998;27;19907;-69
2023/03/29 03:22:04;;;;;;;;;;;;;;;;;;5116431;27;19927;-69
2023/03/29 03:24:31;;;;;;;;;;;;;;;;;;5135274;27;20026;-68
2023/03/29 03:26:57;;;;;;;;;;;;;;;;;;5135123;27;19914;-69
2023/03/29 03:29:23;;;;;;;;;;;;;;;;;;5116785;27;20053;-69
2023/03/29 03:31:51;;;;;;;;;;;;;;;;;;5116812;27;19914;-68
2023/03/29 03:34:18;;;;;;;;;;;;;;;;;;5134803;27;19908;-68
2023/03/29 03:36:46;;;;;;;;;;;;;;;;;;5135155;27;19931;-70
2023/03/29 03:39:11;;;;;;;;;;;;;;;;;;5135521;27;20249;-70
2023/03/29 03:41:37;;;;;;;;;;;;;;;;;;5134544;27;19912;-70
2023/03/29 03:44:03;;;;;;;;;;;;;;;;;;5135288;27;19911;-69
2023/03/29 03:46:30;;;;;;;;;;;;;;;;;;5116567;27;20002;-69
2023/03/29 03:48:56;;;;;;;;;;;;;;;;;;5134624;27;19938;-70
2023/03/29 03:51:22;;;;;;;;;;;;;;;;;;5134989;27;19915;-69
2023/03/29 03:53:48;;;;;;;;;;;;;;;;;;5134900;27;20264;-69
2023/03/29 03:56:15;;;;;;;;;;;;;;;;;;5134392;27;19915;-69
2023/03/29 03:58:41;;;;;;;;;;;;;;;;;;5134767;27;19907;-69
2023/03/29 04:01:10;;;;;;;;;;;;;;;;;;5116155;28;19949;-69
2023/03/29 04:03:36;;;;;;;;;;;;;;;;;;5134609;28;20306;-70
2023/03/29 04:06:02;;;;;;;;;;;;;;;;;;5134961;28;19907;-69
2023/03/29 04:08:29;;;;;;;;;;;;;;;;;;5135042;28;19942;-69
2023/03/29 04:10:55;;;;;;;;;;;;;;;;;;5134364;28;19907;-69
2023/03/29 04:13:21;;;;;;;;;;;;;;;;;;5134800;28;19907;-70
2023/03/29 04:15:48;;;;;;;;;;;;;;;;;;5134698;28;20374;-69
2023/03/29 04:18:14;;;;;;;;;;;;;;;;;;5115862;28;19957;-72
2023/03/29 04:20:40;;;;;;;;;;;;;;;;;;5116159;28;19958;-69
2023/03/29 04:23:06;;;;;;;;;;;;;;;;;;5134488;28;19962;-69
2023/03/29 04:25:32;;;;;;;;;;;;;;;;;;5116220;28;20408;-70
2023/03/29 04:27:58;;;;;;;;;;;;;;;;;;5134592;28;19915;-69
2023/03/29 04:30:24;;;;;;;;;;;;;;;;;;5134137;28;19960;-69
2023/03/29 04:32:50;;;;;;;;;;;;;;;;;;5134503;28;19917;-69
2023/03/29 04:35:16;;;;;;;;;;;;;;;;;;5135054;28;20030;-70
2023/03/29 04:37:42;;;;;;;;;;;;;;;;;;5134091;28;20390;-68
2023/03/29 04:40:08;;;;;;;;;;;;;;;;;;5115997;28;19908;-70
2023/03/29 04:42:34;;;;;;;;;;;;;;;;;;5134320;28;19919;-69
2023/03/29 04:45:00;;;;;;;;;;;;;;;;;;5115617;28;19930;-68
2023/03/29 04:47:30;;;;;;;;;;;;;;;;;;5134355;28;19908;-69
2023/03/29 04:49:56;;;;;;;;;;;;;;;;;;5134389;28;19908;-69
2023/03/29 04:52:21;;;;;;;;;;;;;;;;;;5134045;28;19908;-69
2023/03/29 04:54:47;;;;;;;;;;;;;;;;;;5134341;28;19907;-70
2023/03/29 04:57:14;;;;;;;;;;;;;;;;;;5134192;28;19919;-69
2023/03/29 04:59:40;;;;;;;;;;;;;;;;;;5134070;28;19915;-70
2023/03/29 05:02:06;;;;;;;;;;;;;;;;;;5133994;28;20022;-70
2023/03/29 05:04:32;;;;;;;;;;;;;;;;;;5134179;28;19943;-70
2023/03/29 05:06:58;;;;;;;;;;;;;;;;;;5133851;28;20335;-69
2023/03/29 05:09:24;;;;;;;;;;;;;;;;;;5114958;27;19938;-78
2023/03/29 05:11:50;;;;;;;;;;;;;;;;;;5119377;27;20295;-74
2023/03/29 05:14:16;;;;;;;;;;;;;;;;;;5137194;27;19908;-76
2023/03/29 05:16:42;;;;;;;;;;;;;;;;;;5137768;27;20351;-76
2023/03/29 05:19:08;;;;;;;;;;;;;;;;;;5118984;27;20252;-69
2023/03/29 05:21:34;;;;;;;;;;;;;;;;;;5137028;27;19918;-69
2023/03/29 05:24:00;;;;;;;;;;;;;;;;;;5136911;27;19965;-70
2023/03/29 05:26:26;;;;;;;;;;;;;;;;;;5118651;27;19931;-69
2023/03/29 05:28:52;;;;;;;;;;;;;;;;;;5136044;27;19960;-69
2023/03/29 05:31:18;;;;;;;;;;;;;;;;;;5136357;27;19908;-71
2023/03/29 05:33:44;;;;;;;;;;;;;;;;;;5124248;27;20018;-69
2023/03/29 05:36:12;;;;;;;;;;;;;;;;;;5117754;27;19949;-70
2023/03/29 05:38:41;;;;;;;;;;;;;;;;;;5136791;27;20362;-70
2023/03/29 05:41:07;;;;;;;;;;;;;;;;;;5118805;27;19991;-69
2023/03/29 05:43:34;;;;;;;;;;;;;;;;;;5117582;27;20010;-69
2023/03/29 05:46:00;;;;;;;;;;;;;;;;;;5094832;28;19908;-70
2023/03/29 05:48:26;;;;;;;;;;;;;;;;;;5113013;27;19918;-69
2023/03/29 05:50:52;;;;;;;;;;;;;;;;;;5111617;27;19964;-69
2023/03/29 05:53:18;;;;;;;;;;;;;;;;;;5128996;27;19908;-70
2023/03/29 05:55:45;;;;;;;;;;;;;;;;;;5113228;27;19959;-69
2023/03/29 05:58:11;;;;;;;;;;;;;;;;;;5133957;27;19920;-69
2023/03/29 06:00:37;;;;;;;;;;;;;;;;;;5134718;27;19967;-70
2023/03/29 06:03:03;;;;;;;;;;;;;;;;;;5135815;27;19919;-70
2023/03/29 06:05:29;;;;;;;;;;;;;;;;;;5132855;27;20385;-70
2023/03/29 06:07:55;;;;;;;;;;;;;;;;;;5130669;27;20256;-71
2023/03/29 06:10:22;;;;;;;;;;;;;;;;;;5117364;27;20247;-70
2023/03/29 06:12:48;;;;;;;;;;;;;;;;;;5116909;27;19919;-70
2023/03/29 06:15:14;;;;;;;;;;;;;;;;;;5100808;27;19998;-70
2023/03/29 06:17:40;;;;;;;;;;;;;;;;;;5106802;27;19916;-71
2023/03/29 06:20:09;;;;;;;;;;;;;;;;;;5111199;27;19960;-70
2023/03/29 06:22:35;;;;;;;;;;;;;;;;;;5112982;27;19972;-70
2023/03/29 06:25:01;;;;;;;;;;;;;;;;;;5120584;27;19911;-69
2023/03/29 06:27:27;;;;;;;;;;;;;;;;;;5115548;27;20014;-71
2023/03/29 06:29:53;;;;;;;;;;;;;;;;;;5134120;27;19918;-70
2023/03/29 06:32:22;;;;;;;;;;;;;;;;;;5135359;27;19907;-71
2023/03/29 06:34:48;;;;;;;;;;;;;;;;;;5135429;27;19915;-70
2023/03/29 06:37:14;;;;;;;;;;;;;;;;;;5134874;27;19908;-71
2023/03/29 06:39:40;;;;;;;;;;;;;;;;;;5131804;27;19922;-69
2023/03/29 06:44:56;;;;;;;;;;;;;;;;;;5121609;27;20412;-71
2023/03/29 06:47:27;;;;;;;;;;;;;;;;;;5114177;28;20015;-71
2023/03/29 06:49:54;;;;;;;;;;;;;;;;;;5111063;28;19930;-70
2023/03/29 06:52:20;;;;;;;;;;;;;;;;;;5113941;27;19915;-68
2023/03/29 06:54:46;;;;;;;;;;;;;;;;;;5092678;28;19915;-69
2023/03/29 06:57:12;;;;;;;;;;;;;;;;;;5117844;27;19973;-68
2023/03/29 06:59:38;;;;;;;;;;;;;;;;;;5092928;28;19907;-67
2023/03/29 07:02:04;;;;;;;;;;;;;;;;;;5112281;27;19920;-70
2023/03/29 07:04:31;;;;;;;;;;;;;;;;;;5113912;28;19914;-69
2023/03/29 07:07:04;;;;;;;;;;;;;;;;;;5113700;28;19915;-71
2023/03/29 07:09:30;;;;;;;;;;;;;;;;;;5111789;28;20518;-72
2023/03/29 07:11:57;;;;;;;;;;;;;;;;;;5126261;27;19911;-72
2023/03/29 07:14:29;;;;;;;;;;;;;;;;;;5122912;27;19964;-72
2023/03/29 07:16:57;;;;;;;;;;;;;;;;;;5112561;28;19915;-70
2023/03/29 07:19:26;;;;;;;;;;;;;;;;;;5132424;27;20391;-70
2023/03/29 07:21:52;;;;;;;;;;;;;;;;;;5120911;27;19921;-71
2023/03/29 07:24:21;;;;;;;;;;;;;;;;;;5108449;27;20006;-70
2023/03/29 07:26:47;;;;;;;;;;;;;;;;;;5123521;27;19911;-71
2023/03/29 07:29:13;;;;;;;;;;;;;;;;;;5115932;27;19912;-70
2023/03/29 07:31:42;;;;;;;;;;;;;;;;;;5111661;28;19915;-72
2023/03/29 07:34:11;;;;;;;;;;;;;;;;;;5131713;27;19908;-70
2023/03/29 07:36:37;;;;;;;;;;;;;;;;;;5124373;27;20341;-70
2023/03/29 07:39:03;;;;;;;;;;;;;;;;;;5112878;27;20024;-68
2023/03/29 07:41:29;;;;;;;;;;;;;;;;;;5123939;27;19923;-68
2023/03/29 07:43:55;;;;;;;;;;;;;;;;;;5130969;27;20282;-69
2023/03/29 07:46:21;;;;;;;;;;;;;;;;;;5131009;27;19912;-69
2023/03/29 07:48:47;;;;;;;;;;;;;;;;;;5113324;27;19933;-70
2023/03/29 07:51:13;;;;;;;;;;;;;;;;;;5131780;27;19947;-69
2023/03/29 07:53:40;;;;;;;;;;;;;;;;;;5132248;27;19915;-71
2023/03/29 07:56:06;;;;;;;;;;;;;;;;;;5098596;28;19916;-71
2023/03/29 07:58:33;;;;;;;;;;;;;;;;;;5130088;27;19915;-72
2023/03/29 08:00:59;;;;;;;;;;;;;;;;;;5131446;27;19915;-70
2023/03/29 08:03:26;;;;;;;;;;;;;;;;;;5130540;27;19911;-75
2023/03/29 08:05:52;;;;;;;;;;;;;;;;;;5132712;28;19908;-71
2023/03/29 08:08:18;;;;;;;;;;;;;;;;;;5130792;28;19911;-71
2023/03/29 08:10:45;;;;;;;;;;;;;;;;;;5131360;28;19947;-71
2023/03/29 08:13:20;;;;;;;;;;;;;;;;;;5130027;28;19912;-70
2023/03/29 08:15:47;;;;;;;;;;;;;;;;;;5112323;28;20035;-69
2023/03/29 08:18:14;;;;;;;;;;;;;;;;;;5122312;28;19911;-71
2023/03/29 08:20:41;;;;;;;;;;;;;;;;;;5128318;28;19995;-70
2023/03/29 08:23:07;;;;;;;;;;;;;;;;;;5122556;28;20284;-71
2023/03/29 08:25:34;;;;;;;;;;;;;;;;;;5122352;28;19915;-71
2023/03/29 08:28:00;;;;;;;;;;;;;;;;;;5119770;28;20335;-70
2023/03/29 08:30:26;;;;;;;;;;;;;;;;;;5128187;28;19911;-74
2023/03/29 08:32:52;;;;;;;;;;;;;;;;;;5129515;28;19918;-72
2023/03/29 08:35:18;;;;;;;;;;;;;;;;;;5123599;28;19920;-75
2023/03/29 08:37:44;;;;;;;;;;;;;;;;;;5128170;28;19916;-72
2023/03/29 08:40:11;;;;;;;;;;;;;;;;;;5131129;28;19911;-72
2023/03/29 08:42:37;;;;;;;;;;;;;;;;;;5128673;27;19919;-72
2023/03/29 08:45:03;;;;;;;;;;;;;;;;;;5116337;27;19912;-72
2023/03/29 08:47:29;;;;;;;;;;;;;;;;;;5121985;27;19914;-72
2023/03/29 08:49:55;;;;;;;;;;;;;;;;;;5129144;27;19960;-74
2023/03/29 08:52:21;;;;;;;;;;;;;;;;;;5126451;27;19958;-74
2023/03/29 08:54:47;;;;;;;;;;;;;;;;;;5118838;27;19923;-75
2023/03/29 08:57:13;;;;;;;;;;;;;;;;;;5129361;27;20006;-73
2023/03/29 08:59:39;;;;;;;;;;;;;;;;;;5130300;27;19957;-74
2023/03/29 09:02:05;;;;;;;;;;;;;;;;;;5096086;28;19920;-74
2023/03/29 09:04:32;;;;;;;;;;;;;;;;;;5108467;28;19908;-74
2023/03/29 09:06:58;;;;;;;;;;;;;;;;;;5112746;28;19911;-74
2023/03/29 09:09:25;;;;;;;;;;;;;;;;;;5111451;28;19915;-72
2023/03/29 09:11:51;;;;;;;;;;;;;;;;;;5132742;27;19908;-72
2023/03/29 09:14:17;;;;;;;;;;;;;;;;;;5120774;27;19911;-73
2023/03/29 09:16:43;;;;;;;;;;;;;;;;;;5118937;27;20018;-71
2023/03/29 09:19:09;;;;;;;;;;;;;;;;;;5112788;27;20006;-71
2023/03/29 09:21:35;;;;;;;;;;;;;;;;;;5118318;27;20802;-72
2023/03/29 09:24:01;;;;;;;;;;;;;;;;;;5127667;27;19907;-73
2023/03/29 09:26:27;;;;;;;;;;;;;;;;;;5114261;27;19959;-74
2023/03/29 09:28:53;;;;;;;;;;;;;;;;;;5122610;27;19915;-72
2023/03/29 09:31:20;;;;;;;;;;;;;;;;;;5095307;27;19915;-72
2023/03/29 09:33:46;;;;;;;;;;;;;;;;;;5115137;27;19912;-73
2023/03/29 09:36:12;;;;;;;;;;;;;;;;;;5112160;28;20283;-72
2023/03/29 09:38:38;;;;;;;;;;;;;;;;;;5112343;28;19908;-74
2023/03/29 09:41:05;;;;;;;;;;;;;;;;;;5117026;27;19918;-70
2023/03/29 09:43:31;;;;;;;;;;;;;;;;;;5132232;27;20370;-75
2023/03/29 09:45:57;;;;;;;;;;;;;;;;;;5114803;27;20006;-72
2023/03/29 09:48:23;;;;;;;;;;;;;;;;;;5133916;27;20008;-73
2023/03/29 09:50:50;;;;;;;;;;;;;;;;;;5109484;27;19979;-72
2023/03/29 09:53:16;;;;;;;;;;;;;;;;;;5129915;27;20380;-73
2023/03/29 09:55:42;;;;;;;;;;;;;;;;;;5129872;27;19911;-75
2023/03/29 09:58:08;;;;;;;;;;;;;;;;;;5123899;27;19915;-73
2023/03/29 10:00:35;;;;;;;;;;;;;;;;;;5121132;27;20019;-74
2023/03/29 10:03:01;;;;;;;;;;;;;;;;;;5101496;28;19924;-74
2023/03/29 10:05:30;;;;;;;;;;;;;;;;;;5126037;27;19916;-73
2023/03/29 10:07:57;;;;;;;;;;;;;;;;;;5111759;28;20048;-73
2023/03/29 10:10:23;;;;;;;;;;;;;;;;;;5093834;28;19920;-76
2023/03/29 10:12:49;;;;;;;;;;;;;;;;;;5093138;28;19907;-75
2023/03/29 10:15:16;;;;;;;;;;;;;;;;;;5112052;28;19915;-75
2023/03/29 10:17:44;;;;;;;;;;;;;;;;;;5111338;28;19923;-77
2023/03/29 10:23:02;;;;;;;;;;;;;;;;;;5084735;27;19918;-77
2023/03/29 10:25:28;;;;;;;;;;;;;;;;;;5086215;28;19913;-75
2023/03/29 10:27:53;;;;;;;;;;;;;;;;;;5084370;28;19934;-75
2023/03/29 10:31:37;;;;;;;;;;;;;;;;;;5085339;27;20292;-73
2023/03/29 10:34:03;;;;;;;;;;;;;;;;;;5084395;28;19916;-73
2023/03/29 10:36:29;;;;;;;;;;;;;;;;;;5084046;28;20440;-72
2023/03/29 10:38:55;;;;;;;;;;;;;;;;;;5087649;28;19908;-72
2023/03/29 10:41:27;;;;;;;;;;;;;;;;;;5088999;28;19919;-73
2023/03/29 10:44:29;;;;;;;;;;;;;;;;;;5151754;27;19915;-74
2023/03/29 10:46:55;;;;;;;;;;;;;;;;;;5151821;27;19915;-73
2023/03/29 10:49:21;;;;;;;;;;;;;;;;;;5132639;27;19911;-73
2023/03/29 10:51:48;;;;;;;;;;;;;;;;;;5151618;27;19908;-72
2023/03/29 10:54:14;;;;;;;;;;;;;;;;;;5151857;27;19907;-73
2023/03/29 10:57:31;;;;;;;;;;;;;;;;;;5151291;27;19911;-73
2023/03/29 10:59:57;;;;;;;;;;;;;;;;;;5139748;27;20286;-73
2023/03/29 11:02:46;;;;;;;;;;;;;;;;;;5089076;27;20311;-72
2023/03/29 11:06:06;;;;;;;;;;;;;;;;;;5171883;27;20002;-73
2023/03/29 11:09:01;;;;;;;;;;;;;;;;;;5110015;27;19913;-72
2023/03/29 11:11:27;;;;;;;;;;;;;;;;;;5109727;28;19942;-72
2023/03/29 11:13:53;;;;;;;;;;;;;;;;;;5108123;28;19908;-75
2023/03/29 11:16:19;;;;;;;;;;;;;;;;;;5108484;28;19912;-73
2023/03/29 11:18:45;;;;;;;;;;;;;;;;;;5105538;28;19912;-72
2023/03/29 11:21:26;;;;;;;;;;;;;;;;;;5096264;27;2164815;-82
2023/03/29 11:38:04;;;;;;;;;;;;;;;;;;5089285;27;19942;-78
2023/03/29 11:40:34;;;;;;;;;;;;;;;;;;5088745;28;20377;-77
2023/03/29 11:43:01;;;;;;;;;;;;;;;;;;5089165;28;19978;-77
2023/03/29 11:45:27;;;;;;;;;;;;;;;;;;5089901;28;19908;-76
2023/03/29 11:47:53;;;;;;;;;;;;;;;;;;5089638;28;19919;-76
2023/03/29 11:55:13;;;;;;;;;;;;;;;;;;5151073;27;20454;-76
2023/03/29 11:59:14;;;;;;;;;;;;;;;;;;5151547;27;20025;-75
2023/03/29 12:01:40;;;;;;;;;;;;;;;;;;5151643;27;20364;-76
2023/03/29 12:04:06;;;;;;;;;;;;;;;;;;5150489;27;19961;-77
2023/03/29 12:06:32;;;;;;;;;;;;;;;;;;5149821;27;19933;-77
2023/03/29 12:15:16;;;;;;;;;;;;;;;;;;5087179;28;19916;-74
2023/03/29 12:17:41;;;;;;;;;;;;;;;;;;5088385;28;19936;-75
2023/03/29 12:20:07;;;;;;;;;;;;;;;;;;5088194;28;20360;-74
2023/03/29 12:23:39;;;;;;;;;;;;;;;;;;5108545;27;19920;-76
2023/03/29 12:27:18;;;;;;;;;;;;;;;;;;5128657;27;19918;-78
2023/03/29 12:30:51;;;;;;;;;;;;;;;;;;5109501;27;20352;-70
2023/03/29 12:33:17;;;;;;;;;;;;;;;;;;5110603;28;20321;-69
2023/03/29 12:37:31;;;;;;;;;;;;;;;;;;5090952;27;20394;-69
2023/03/29 12:39:57;;;;;;;;;;;;;;;;;;5090285;28;19912;-70
2023/03/29 12:44:03;;;;;;;;;;;;;;;;;;5090179;27;19919;-70
2023/03/29 12:46:29;;;;;;;;;;;;;;;;;;5090598;28;19912;-71
2023/03/29 12:48:56;;;;;;;;;;;;;;;;;;5088777;28;19992;-71
2023/03/29 12:52:55;;;;;;;;;;;;;;;;;;5098860;27;2092890;-70
2023/03/29 12:55:22;;;;;;;;;;;;;;;;;;5172407;27;19951;-71
2023/03/29 12:57:47;;;;;;;;;;;;;;;;;;5158712;27;19911;-72
2023/03/29 13:00:14;;;;;;;;;;;;;;;;;;5130051;27;19908;-72
2023/03/29 13:02:40;;;;;;;;;;;;;;;;;;5131409;27;19907;-71
2023/03/29 13:05:07;;;;;;;;;;;;;;;;;;5150659;27;19907;-70
2023/03/29 13:07:36;;;;;;;;;;;;;;;;;;5148656;27;19908;-70
2023/03/29 13:11:38;;;;;;;;;;;;;;;;;;5087640;27;19913;-70
2023/03/29 13:14:04;;;;;;;;;;;;;;;;;;5088165;28;19938;-70
2023/03/29 13:16:30;;;;;;;;;;;;;;;;;;5088032;28;19908;-72
2023/03/29 13:18:56;;;;;;;;;;;;;;;;;;5087479;28;19912;-71
2023/03/29 13:21:22;;;;;;;;;;;;;;;;;;5085529;28;19970;-69
2023/03/29 13:23:48;;;;;;;;;;;;;;;;;;5086554;28;19994;-70
2023/03/29 13:26:16;;;;;;;;;;;;;;;;;;5087278;28;19908;-69
2023/03/29 13:32:16;;;;;;;;;;;;;;;;;;5109764;27;19918;-70
2023/03/29 13:35:49;;;;;;;;;;;;;;;;;;5171680;27;19922;-70
2023/03/29 13:38:15;;;;;;;;;;;;;;;;;;5172707;27;19919;-69
2023/03/29 13:40:41;;;;;;;;;;;;;;;;;;5173107;27;20420;-70
2023/03/29 13:43:07;;;;;;;;;;;;;;;;;;5173596;27;19960;-69
2023/03/29 13:45:34;;;;;;;;;;;;;;;;;;5173359;27;19907;-69
2023/03/29 13:49:57;;;;;;;;;;;;;;;;;;5112331;27;19916;-70
2023/03/29 13:52:23;;;;;;;;;;;;;;;;;;5110332;28;20010;-70
2023/03/29 13:54:50;;;;;;;;;;;;;;;;;;5109814;28;19912;-69
2023/03/29 13:58:46;;;;;;;;;;;;;;;;;;5091812;27;19917;-70
2023/03/29 14:01:12;;;;;;;;;;;;;;;;;;5090795;28;19939;-69
2023/03/29 14:05:50;;;;;;;;;;;;;;;;;;5111641;27;19916;-70
2023/03/29 14:10:11;;;;;;;;;;;;;;;;;;5116112;27;19916;-70
2023/03/29 14:12:37;;;;;;;;;;;;;;;;;;5130703;28;19918;-69
2023/03/29 14:15:03;;;;;;;;;;;;;;;;;;5131550;27;19918;-70
2023/03/29 14:17:29;;;;;;;;;;;;;;;;;;5131843;27;19908;-69
2023/03/29 14:19:56;;;;;;;;;;;;;;;;;;5131757;27;19998;-70
2023/03/29 14:22:22;;;;;;;;;;;;;;;;;;5131362;27;20410;-70
2023/03/29 14:27:34;;;;;;;;;;;;;;;;;;5173432;27;19911;-70
2023/03/29 14:32:19;;;;;;;;;;;;;;;;;;5173960;27;20283;-71
2023/03/29 14:34:45;;;;;;;;;;;;;;;;;;5173640;27;20314;-71
2023/03/29 14:39:27;;;;;;;;;;;;;;;;;;5111523;27;19922;-69
2023/03/29 14:41:53;;;;;;;;;;;;;;;;;;5111431;28;20011;-69
2023/03/29 14:44:19;;;;;;;;;;;;;;;;;;5120818;28;19960;-70
2023/03/29 14:46:48;;;;;;;;;;;;;;;;;;5132030;27;19914;-70
2023/03/29 14:49:14;;;;;;;;;;;;;;;;;;5131286;27;19918;-70
2023/03/29 14:53:33;;;;;;;;;;;;;;;;;;5091656;27;19912;-69
2023/03/29 14:55:59;;;;;;;;;;;;;;;;;;5089713;28;19917;-69
2023/03/29 14:58:25;;;;;;;;;;;;;;;;;;5088897;28;20326;-69
2023/03/29 15:02:22;;;;;;;;;;;;;;;;;;5109754;27;19923;-70
2023/03/29 15:05:44;;;;;;;;;;;;;;;;;;5151841;27;20016;-72
2023/03/29 15:08:10;;;;;;;;;;;;;;;;;;5133733;27;20287;-70
2023/03/29 15:12:36;;;;;;;;;;;;;;;;;;5111154;27;19912;-70
2023/03/29 15:15:02;;;;;;;;;;;;;;;;;;5111622;28;19912;-70
2023/03/29 15:17:29;;;;;;;;;;;;;;;;;;5111033;28;19912;-70
2023/03/29 15:22:09;;;;;;;;;;;;;;;;;;5111623;27;20372;-69
2023/03/29 15:24:35;;;;;;;;;;;;;;;;;;5111397;28;19912;-71
2023/03/29 15:27:02;;;;;;;;;;;;;;;;;;5111494;28;19914;-71
2023/03/29 15:29:28;;;;;;;;;;;;;;;;;;5111696;28;19908;-70
2023/03/29 15:31:54;;;;;;;;;;;;;;;;;;5111169;28;19919;-71
2023/03/29 15:34:20;;;;;;;;;;;;;;;;;;5110179;28;19944;-70
2023/03/29 15:36:46;;;;;;;;;;;;;;;;;;5111551;28;19919;-70
2023/03/29 15:39:12;;;;;;;;;;;;;;;;;;5110941;28;19908;-70
2023/03/29 15:41:38;;;;;;;;;;;;;;;;;;5111094;28;19916;-71
2023/03/29 15:45:36;;;;;;;;;;;;;;;;;;5152699;27;20155;-70
2023/03/29 15:48:04;;;;;;;;;;;;;;;;;;5152693;27;20018;-70
2023/03/29 15:50:30;;;;;;;;;;;;;;;;;;5152137;27;20367;-70
2023/03/29 15:52:58;;;;;;;;;;;;;;;;;;5150145;27;19907;-70
2023/03/29 15:55:25;;;;;;;;;;;;;;;;;;5131998;27;19912;-70
2023/03/29 15:57:50;;;;;;;;;;;;;;;;;;5132660;27;19956;-70
2023/03/29 16:00:17;;;;;;;;;;;;;;;;;;5151502;27;20317;-70
2023/03/29 16:05:23;;;;;;;;;;;;;;;;;;5111571;27;19916;-70
2023/03/29 16:07:48;;;;;;;;;;;;;;;;;;5111262;28;19912;-70
2023/03/29 16:11:01;;;;;;;;;;;;;;;;;;5092042;27;19919;-70
2023/03/29 16:13:27;;;;;;;;;;;;;;;;;;5090888;28;20007;-70
2023/03/29 16:16:37;;;;;;;;;;;;;;;;;;5092077;27;19912;-70
2023/03/29 16:19:03;;;;;;;;;;;;;;;;;;5091124;28;19981;-70
2023/03/29 16:21:29;;;;;;;;;;;;;;;;;;5090811;28;20361;-70
2023/03/29 16:23:55;;;;;;;;;;;;;;;;;;5089811;28;20373;-70
2023/03/29 16:30:12;;;;;;;;;;;;;;;;;;5112206;27;19916;-69
2023/03/29 16:32:38;;;;;;;;;;;;;;;;;;5111710;28;20391;-69
2023/03/29 16:35:04;;;;;;;;;;;;;;;;;;5109784;28;19908;-71
2023/03/29 16:37:30;;;;;;;;;;;;;;;;;;5111589;28;19953;-69
2023/03/29 16:39:57;;;;;;;;;;;;;;;;;;5111627;28;19908;-70
2023/03/29 16:42:23;;;;;;;;;;;;;;;;;;5111064;28;19961;-71
2023/03/29 16:47:33;;;;;;;;;;;;;;;;;;5112379;27;19916;-69
2023/03/29 16:49:59;;;;;;;;;;;;;;;;;;5111416;28;19991;-69
2023/03/29 16:52:25;;;;;;;;;;;;;;;;;;5111659;28;19953;-70
2023/03/29 16:54:51;;;;;;;;;;;;;;;;;;5111535;28;19908;-70
2023/03/29 16:57:17;;;;;;;;;;;;;;;;;;5111226;28;19915;-70
2023/03/29 16:59:46;;;;;;;;;;;;;;;;;;5111714;28;19908;-70
2023/03/29 17:02:12;;;;;;;;;;;;;;;;;;5111782;28;20356;-70
2023/03/29 17:04:38;;;;;;;;;;;;;;;;;;5110927;28;19908;-69
2023/03/29 17:07:04;;;;;;;;;;;;;;;;;;5111352;28;19916;-71
2023/03/29 17:09:30;;;;;;;;;;;;;;;;;;5111413;28;19912;-70
2023/03/29 17:11:56;;;;;;;;;;;;;;;;;;5110877;28;19908;-70
2023/03/29 17:14:24;;;;;;;;;;;;;;;;;;5111819;28;20384;-70
2023/03/29 17:16:50;;;;;;;;;;;;;;;;;;5109749;28;19908;-70
2023/03/29 17:19:16;;;;;;;;;;;;;;;;;;5111158;28;19914;-70
2023/03/29 17:21:42;;;;;;;;;;;;;;;;;;5111074;28;19915;-70
2023/03/29 17:24:08;;;;;;;;;;;;;;;;;;5111077;28;19995;-69
2023/03/29 17:26:34;;;;;;;;;;;;;;;;;;5110801;28;19916;-70
2023/03/29 17:29:00;;;;;;;;;;;;;;;;;;5109477;28;19961;-70
2023/03/29 17:31:26;;;;;;;;;;;;;;;;;;5110393;28;19908;-69
2023/03/29 17:33:52;;;;;;;;;;;;;;;;;;5110757;28;19912;-70
2023/03/29 17:36:22;;;;;;;;;;;;;;;;;;5110617;28;20326;-69
2023/03/29 17:38:49;;;;;;;;;;;;;;;;;;5110166;28;19908;-68
2023/03/29 17:41:15;;;;;;;;;;;;;;;;;;5110567;28;19915;-68
2023/03/29 17:43:41;;;;;;;;;;;;;;;;;;5110555;28;20276;-69
2023/03/29 17:46:07;;;;;;;;;;;;;;;;;;5109811;28;19920;-68
2023/03/29 17:48:33;;;;;;;;;;;;;;;;;;5110288;28;19912;-69
2023/03/29 17:50:59;;;;;;;;;;;;;;;;;;5109033;28;19912;-68
2023/03/29 17:53:25;;;;;;;;;;;;;;;;;;5109981;28;20387;-70
2023/03/29 17:55:51;;;;;;;;;;;;;;;;;;5110280;28;19912;-69
2023/03/29 17:58:18;;;;;;;;;;;;;;;;;;5099986;28;20465;-69
2023/03/29 18:00:44;;;;;;;;;;;;;;;;;;5095097;28;20372;-70
2023/03/29 18:03:10;;;;;;;;;;;;;;;;;;5096724;28;19907;-70
2023/03/29 18:05:36;;;;;;;;;;;;;;;;;;5096942;28;20368;-69
2023/03/29 18:08:02;;;;;;;;;;;;;;;;;;5096122;28;19912;-69